TKJ3030 LTFJ-LTAI
Flight info
| Callsign | TKJ3030 |
|---|---|
| Flight time | 0h 50m |
| Altitude | 37000 |
| Route | ROXUK UN617 ERVAG UT305 TEKDO UT35 BABSA |
| Aircraft | B738/M-SDE2E3FGHIRWXY/LB1 |
Departure
| Time | 2026-05-06 11:32 |
|---|---|
| Airport | Istanbul Sabiha Gökçen International Airport (LTFJ) |
Arrival
| Time | 2026-05-06 12:23 |
|---|---|
| Airport | Antalya International Airport (LTAI) |
| Time | Latitude | Longitude | Altitude | Speed | Heading |
|---|---|---|---|---|---|
| 2026-05-06 11:04 | 40.90698 | 29.31841 | 320 ft | 0 kts | 334° |
| 2026-05-06 11:17 | 40.90686 | 29.31848 | 320 ft | 4 kts | 333° |
| 2026-05-06 11:18 | 40.90662 | 29.31865 | 320 ft | 4 kts | 328° |
| 2026-05-06 11:18 | 40.90641 | 29.31885 | 318 ft | 4 kts | 315° |
| 2026-05-06 11:18 | 40.90627 | 29.31911 | 320 ft | 4 kts | 268° |
| 2026-05-06 11:18 | 40.90628 | 29.31922 | 319 ft | 0 kts | 244° |
| 2026-05-06 11:22 | 40.90619 | 29.31899 | 317 ft | 7 kts | 244° |
| 2026-05-06 11:22 | 40.90586 | 29.31810 | 320 ft | 15 kts | 244° |
| 2026-05-06 11:22 | 40.90533 | 29.31665 | 320 ft | 19 kts | 244° |
| 2026-05-06 11:22 | 40.90475 | 29.31508 | 320 ft | 19 kts | 245° |
| 2026-05-06 11:23 | 40.90420 | 29.31357 | 320 ft | 18 kts | 244° |
| 2026-05-06 11:23 | 40.90366 | 29.31211 | 320 ft | 17 kts | 244° |
| 2026-05-06 11:23 | 40.90314 | 29.31070 | 318 ft | 17 kts | 244° |
| 2026-05-06 11:23 | 40.90264 | 29.30934 | 320 ft | 16 kts | 244° |
| 2026-05-06 11:24 | 40.90191 | 29.30884 | 320 ft | 10 kts | 159° |
| 2026-05-06 11:24 | 40.90129 | 29.30926 | 320 ft | 10 kts | 151° |
| 2026-05-06 11:24 | 40.90050 | 29.30977 | 320 ft | 16 kts | 154° |
| 2026-05-06 11:24 | 40.89938 | 29.31045 | 319 ft | 18 kts | 161° |
| 2026-05-06 11:25 | 40.89824 | 29.31098 | 318 ft | 18 kts | 151° |
| 2026-05-06 11:25 | 40.89715 | 29.31194 | 318 ft | 19 kts | 148° |
| 2026-05-06 11:25 | 40.89587 | 29.31277 | 313 ft | 21 kts | 155° |
| 2026-05-06 11:25 | 40.89460 | 29.31359 | 308 ft | 21 kts | 153° |
| 2026-05-06 11:26 | 40.89331 | 29.31441 | 305 ft | 20 kts | 154° |
| 2026-05-06 11:26 | 40.89217 | 29.31439 | 305 ft | 13 kts | 210° |
| 2026-05-06 11:26 | 40.89153 | 29.31483 | 309 ft | 13 kts | 90° |
| 2026-05-06 11:26 | 40.89187 | 29.31592 | 306 ft | 14 kts | 63° |
| 2026-05-06 11:27 | 40.89244 | 29.31745 | 306 ft | 23 kts | 65° |
| 2026-05-06 11:27 | 40.89319 | 29.31951 | 306 ft | 25 kts | 64° |
| 2026-05-06 11:27 | 40.89392 | 29.32149 | 307 ft | 23 kts | 64° |
| 2026-05-06 11:27 | 40.89461 | 29.32337 | 307 ft | 22 kts | 64° |
| 2026-05-06 11:28 | 40.89528 | 29.32520 | 306 ft | 22 kts | 64° |
| 2026-05-06 11:28 | 40.89593 | 29.32698 | 306 ft | 21 kts | 64° |
| 2026-05-06 11:28 | 40.89657 | 29.32870 | 307 ft | 21 kts | 64° |
| 2026-05-06 11:28 | 40.89718 | 29.33038 | 304 ft | 20 kts | 63° |
| 2026-05-06 11:29 | 40.89781 | 29.33204 | 303 ft | 22 kts | 64° |
| 2026-05-06 11:29 | 40.89853 | 29.33402 | 303 ft | 25 kts | 64° |
| 2026-05-06 11:29 | 40.89926 | 29.33600 | 308 ft | 23 kts | 64° |
| 2026-05-06 11:29 | 40.89994 | 29.33787 | 313 ft | 18 kts | 65° |
| 2026-05-06 11:30 | 40.90010 | 29.33903 | 314 ft | 10 kts | 124° |
| 2026-05-06 11:30 | 40.89953 | 29.33952 | 315 ft | 10 kts | 154° |
| 2026-05-06 11:30 | 40.89896 | 29.33988 | 318 ft | 6 kts | 155° |
| 2026-05-06 11:30 | 40.89891 | 29.33991 | 319 ft | 0 kts | 155° |
| 2026-05-06 11:31 | 40.89864 | 29.34000 | 319 ft | 7 kts | 185° |
| 2026-05-06 11:31 | 40.89835 | 29.33945 | 318 ft | 8 kts | 244° |
| 2026-05-06 11:31 | 40.89770 | 29.33761 | 312 ft | 52 kts | 245° |
| 2026-05-06 11:31 | 40.89506 | 29.33038 | 300 ft | 119 kts | 244° |
| 2026-05-06 11:32 | 40.89068 | 29.31846 | 373 ft | 164 kts | 244° |
| 2026-05-06 11:32 | 40.88552 | 29.30446 | 1071 ft | 165 kts | 244° |
| 2026-05-06 11:32 | 40.87930 | 29.29210 | 1871 ft | 166 kts | 225° |
| 2026-05-06 11:32 | 40.86869 | 29.28421 | 2303 ft | 191 kts | 201° |
| 2026-05-06 11:33 | 40.85578 | 29.27652 | 2588 ft | 217 kts | 212° |
| 2026-05-06 11:33 | 40.84245 | 29.26515 | 2927 ft | 236 kts | 216° |
| 2026-05-06 11:33 | 40.82852 | 29.25268 | 3458 ft | 249 kts | 215° |
| 2026-05-06 11:33 | 40.81397 | 29.23966 | 4157 ft | 256 kts | 216° |
| 2026-05-06 11:34 | 40.79914 | 29.22641 | 4949 ft | 259 kts | 216° |
| 2026-05-06 11:34 | 40.78409 | 29.21297 | 5720 ft | 263 kts | 216° |
| 2026-05-06 11:34 | 40.76810 | 29.20163 | 6450 ft | 269 kts | 195° |
| 2026-05-06 11:34 | 40.74922 | 29.20182 | 7021 ft | 281 kts | 163° |
| 2026-05-06 11:35 | 40.73110 | 29.21226 | 7634 ft | 288 kts | 154° |
| 2026-05-06 11:35 | 40.71292 | 29.22400 | 8354 ft | 293 kts | 154° |
| 2026-05-06 11:35 | 40.69444 | 29.23578 | 9080 ft | 297 kts | 154° |
| 2026-05-06 11:35 | 40.67563 | 29.24764 | 9794 ft | 302 kts | 154° |
| 2026-05-06 11:36 | 40.65642 | 29.25967 | 10349 ft | 313 kts | 155° |
| 2026-05-06 11:36 | 40.63595 | 29.27243 | 10519 ft | 337 kts | 155° |
| 2026-05-06 11:36 | 40.61405 | 29.28605 | 10697 ft | 359 kts | 155° |
| 2026-05-06 11:36 | 40.59087 | 29.30046 | 10963 ft | 376 kts | 155° |
| 2026-05-06 11:37 | 40.56698 | 29.31530 | 11485 ft | 383 kts | 155° |
| 2026-05-06 11:37 | 40.54270 | 29.33038 | 12121 ft | 388 kts | 154° |
| 2026-05-06 11:37 | 40.51821 | 29.34558 | 12780 ft | 391 kts | 154° |
| 2026-05-06 11:37 | 40.49346 | 29.36092 | 13460 ft | 395 kts | 154° |
| 2026-05-06 11:38 | 40.46927 | 29.37826 | 14115 ft | 399 kts | 144° |
| 2026-05-06 11:38 | 40.44747 | 29.40096 | 14765 ft | 401 kts | 139° |
| 2026-05-06 11:38 | 40.42608 | 29.42464 | 15435 ft | 404 kts | 139° |
| 2026-05-06 11:38 | 40.40433 | 29.44836 | 16093 ft | 408 kts | 139° |
| 2026-05-06 11:39 | 40.38218 | 29.47185 | 16737 ft | 411 kts | 140° |
| 2026-05-06 11:39 | 40.35972 | 29.49531 | 17387 ft | 415 kts | 140° |
| 2026-05-06 11:39 | 40.33696 | 29.51894 | 18028 ft | 419 kts | 140° |
| 2026-05-06 11:39 | 40.31404 | 29.54274 | 18621 ft | 422 kts | 140° |
| 2026-05-06 11:40 | 40.29127 | 29.56639 | 19163 ft | 425 kts | 140° |
| 2026-05-06 11:40 | 40.26805 | 29.59054 | 19715 ft | 427 kts | 141° |
| 2026-05-06 11:40 | 40.24466 | 29.61483 | 20242 ft | 431 kts | 141° |
| 2026-05-06 11:40 | 40.22097 | 29.63898 | 20763 ft | 434 kts | 145° |
| 2026-05-06 11:41 | 40.19373 | 29.65610 | 21233 ft | 438 kts | 166° |
| 2026-05-06 11:41 | 40.16378 | 29.66331 | 21812 ft | 438 kts | 172° |
| 2026-05-06 11:41 | 40.13355 | 29.66911 | 22330 ft | 441 kts | 172° |
| 2026-05-06 11:41 | 40.10304 | 29.67492 | 22808 ft | 444 kts | 172° |
| 2026-05-06 11:42 | 40.07235 | 29.68096 | 23282 ft | 447 kts | 172° |
| 2026-05-06 11:42 | 40.04141 | 29.68726 | 23738 ft | 450 kts | 172° |
| 2026-05-06 11:42 | 40.01042 | 29.69372 | 24130 ft | 453 kts | 172° |
| 2026-05-06 11:42 | 39.97923 | 29.70028 | 24478 ft | 456 kts | 172° |
| 2026-05-06 11:43 | 39.94775 | 29.70690 | 24801 ft | 460 kts | 172° |
| 2026-05-06 11:43 | 39.91602 | 29.71356 | 25179 ft | 463 kts | 172° |
| 2026-05-06 11:43 | 39.88468 | 29.72106 | 25559 ft | 466 kts | 166° |
| 2026-05-06 11:44 | 39.82439 | 29.75312 | 26262 ft | 471 kts | 155° |
| 2026-05-06 11:44 | 39.79443 | 29.77120 | 26546 ft | 475 kts | 155° |
| 2026-05-06 11:44 | 39.76432 | 29.78916 | 26821 ft | 478 kts | 156° |
| 2026-05-06 11:44 | 39.73388 | 29.80690 | 27137 ft | 481 kts | 156° |
| 2026-05-06 11:45 | 39.70320 | 29.82440 | 27467 ft | 483 kts | 157° |
| 2026-05-06 11:45 | 39.67232 | 29.84178 | 27917 ft | 482 kts | 157° |
| 2026-05-06 11:45 | 39.64164 | 29.85894 | 28363 ft | 481 kts | 158° |
| 2026-05-06 11:45 | 39.61084 | 29.87616 | 28715 ft | 482 kts | 158° |
| 2026-05-06 11:46 | 39.57999 | 29.89341 | 29054 ft | 483 kts | 158° |
| 2026-05-06 11:46 | 39.54908 | 29.91071 | 29445 ft | 484 kts | 158° |
| 2026-05-06 11:46 | 39.51821 | 29.92798 | 29813 ft | 484 kts | 158° |
| 2026-05-06 11:46 | 39.48733 | 29.94535 | 30231 ft | 483 kts | 157° |
| 2026-05-06 11:47 | 39.45651 | 29.96278 | 30570 ft | 483 kts | 157° |
| 2026-05-06 11:47 | 39.42609 | 29.98001 | 30843 ft | 484 kts | 157° |
| 2026-05-06 11:47 | 39.39524 | 29.99746 | 31085 ft | 486 kts | 157° |
| 2026-05-06 11:47 | 39.36412 | 30.01504 | 31067 ft | 489 kts | 158° |
| 2026-05-06 11:48 | 39.30175 | 30.05021 | 31069 ft | 486 kts | 158° |
| 2026-05-06 11:48 | 39.23994 | 30.08497 | 31088 ft | 484 kts | 158° |
| 2026-05-06 11:49 | 39.17823 | 30.11961 | 31098 ft | 484 kts | 158° |
| 2026-05-06 11:49 | 39.11654 | 30.15417 | 31093 ft | 483 kts | 158° |
| 2026-05-06 11:50 | 39.05278 | 30.17955 | 31099 ft | 478 kts | 174° |
| 2026-05-06 11:50 | 38.98672 | 30.18159 | 31102 ft | 474 kts | 185° |
| 2026-05-06 11:51 | 38.92077 | 30.17823 | 31097 ft | 475 kts | 185° |
| 2026-05-06 11:51 | 38.85475 | 30.17538 | 31091 ft | 475 kts | 184° |
| 2026-05-06 11:52 | 38.78862 | 30.17295 | 31103 ft | 476 kts | 184° |
| 2026-05-06 11:52 | 38.72230 | 30.17062 | 31096 ft | 477 kts | 184° |
| 2026-05-06 11:53 | 38.66706 | 30.16867 | 31094 ft | 478 kts | 184° |
| 2026-05-06 11:53 | 38.60059 | 30.16630 | 31090 ft | 478 kts | 184° |
| 2026-05-06 11:54 | 38.53401 | 30.16393 | 31100 ft | 478 kts | 184° |
| 2026-05-06 11:54 | 38.46728 | 30.16155 | 30711 ft | 484 kts | 184° |
| 2026-05-06 11:55 | 38.43354 | 30.16034 | 29999 ft | 484 kts | 184° |
| 2026-05-06 11:55 | 38.39992 | 30.15916 | 29142 ft | 483 kts | 184° |
| 2026-05-06 11:55 | 38.36631 | 30.15830 | 28300 ft | 482 kts | 181° |
| 2026-05-06 11:55 | 38.33289 | 30.16234 | 27516 ft | 483 kts | 172° |
| 2026-05-06 11:56 | 38.30054 | 30.17268 | 26988 ft | 478 kts | 162° |
| 2026-05-06 11:56 | 38.26958 | 30.18753 | 26391 ft | 473 kts | 160° |
| 2026-05-06 11:56 | 38.23937 | 30.20223 | 25806 ft | 469 kts | 161° |
| 2026-05-06 11:56 | 38.20894 | 30.21660 | 25241 ft | 464 kts | 161° |
| 2026-05-06 11:57 | 38.17906 | 30.23038 | 25076 ft | 450 kts | 161° |
| 2026-05-06 11:57 | 38.15003 | 30.24365 | 24873 ft | 438 kts | 161° |
| 2026-05-06 11:57 | 38.12176 | 30.25657 | 24693 ft | 426 kts | 161° |
| 2026-05-06 11:57 | 38.09420 | 30.26917 | 24498 ft | 416 kts | 161° |
| 2026-05-06 11:58 | 38.06729 | 30.28151 | 24337 ft | 405 kts | 161° |
| 2026-05-06 11:58 | 38.04109 | 30.29351 | 24165 ft | 396 kts | 161° |
| 2026-05-06 11:58 | 38.01565 | 30.30596 | 23989 ft | 389 kts | 154° |
| 2026-05-06 11:58 | 37.99348 | 30.32529 | 23687 ft | 385 kts | 141° |
| 2026-05-06 11:59 | 37.97272 | 30.34662 | 23280 ft | 383 kts | 141° |
| 2026-05-06 11:59 | 37.95206 | 30.36778 | 22887 ft | 380 kts | 141° |
| 2026-05-06 11:59 | 37.93142 | 30.38863 | 22511 ft | 377 kts | 142° |
| 2026-05-06 11:59 | 37.91086 | 30.40913 | 22149 ft | 374 kts | 142° |
| 2026-05-06 12:00 | 37.89043 | 30.42934 | 21794 ft | 371 kts | 143° |
| 2026-05-06 12:00 | 37.87016 | 30.44934 | 21441 ft | 368 kts | 143° |
| 2026-05-06 12:00 | 37.84936 | 30.46787 | 21087 ft | 365 kts | 152° |
| 2026-05-06 12:00 | 37.82650 | 30.48140 | 20766 ft | 359 kts | 163° |
| 2026-05-06 12:01 | 37.80270 | 30.49028 | 20452 ft | 355 kts | 167° |
| 2026-05-06 12:01 | 37.77890 | 30.49834 | 20101 ft | 353 kts | 167° |
| 2026-05-06 12:01 | 37.75521 | 30.50630 | 19765 ft | 351 kts | 167° |
| 2026-05-06 12:01 | 37.73168 | 30.51430 | 19425 ft | 349 kts | 167° |
| 2026-05-06 12:02 | 37.70828 | 30.52236 | 19087 ft | 348 kts | 167° |
| 2026-05-06 12:02 | 37.68514 | 30.53041 | 18918 ft | 341 kts | 167° |
| 2026-05-06 12:02 | 37.66248 | 30.53833 | 18748 ft | 334 kts | 167° |
| 2026-05-06 12:02 | 37.64031 | 30.54609 | 18593 ft | 327 kts | 167° |
| 2026-05-06 12:03 | 37.61861 | 30.55368 | 18450 ft | 320 kts | 167° |
| 2026-05-06 12:03 | 37.59740 | 30.56108 | 18301 ft | 313 kts | 168° |
| 2026-05-06 12:03 | 37.57623 | 30.56426 | 18025 ft | 303 kts | 189° |
| 2026-05-06 12:03 | 37.55557 | 30.56099 | 17759 ft | 299 kts | 191° |
| 2026-05-06 12:04 | 37.53520 | 30.55775 | 17455 ft | 298 kts | 190° |
| 2026-05-06 12:04 | 37.51471 | 30.55472 | 17165 ft | 296 kts | 189° |
| 2026-05-06 12:04 | 37.49429 | 30.55183 | 16872 ft | 295 kts | 189° |
| 2026-05-06 12:04 | 37.47396 | 30.54898 | 16564 ft | 293 kts | 189° |
| 2026-05-06 12:05 | 37.45381 | 30.54617 | 16290 ft | 291 kts | 189° |
| 2026-05-06 12:05 | 37.43374 | 30.54338 | 16006 ft | 289 kts | 189° |
| 2026-05-06 12:05 | 37.41376 | 30.54060 | 15722 ft | 288 kts | 189° |
| 2026-05-06 12:05 | 37.39383 | 30.53782 | 15402 ft | 289 kts | 189° |
| 2026-05-06 12:06 | 37.37377 | 30.53503 | 15083 ft | 290 kts | 189° |
| 2026-05-06 12:06 | 37.35376 | 30.53225 | 14807 ft | 289 kts | 189° |
| 2026-05-06 12:06 | 37.33374 | 30.52947 | 14515 ft | 289 kts | 189° |
| 2026-05-06 12:06 | 37.31371 | 30.52669 | 14222 ft | 289 kts | 188° |
| 2026-05-06 12:07 | 37.29374 | 30.52392 | 13937 ft | 290 kts | 188° |
| 2026-05-06 12:07 | 37.27366 | 30.52113 | 13617 ft | 290 kts | 188° |
| 2026-05-06 12:07 | 37.25371 | 30.51837 | 13336 ft | 288 kts | 188° |
| 2026-05-06 12:07 | 37.23379 | 30.51561 | 13045 ft | 287 kts | 188° |
| 2026-05-06 12:08 | 37.21406 | 30.51288 | 12765 ft | 285 kts | 188° |
| 2026-05-06 12:08 | 37.19440 | 30.51016 | 12500 ft | 283 kts | 188° |
| 2026-05-06 12:08 | 37.17487 | 30.50745 | 12228 ft | 282 kts | 188° |
| 2026-05-06 12:08 | 37.15536 | 30.50477 | 11894 ft | 282 kts | 188° |
| 2026-05-06 12:09 | 37.13594 | 30.50209 | 11636 ft | 279 kts | 188° |
| 2026-05-06 12:09 | 37.11656 | 30.50133 | 11343 ft | 281 kts | 170° |
| 2026-05-06 12:09 | 37.09919 | 30.51118 | 11087 ft | 279 kts | 139° |
| 2026-05-06 12:09 | 37.08746 | 30.53009 | 10813 ft | 276 kts | 112° |
| 2026-05-06 12:10 | 37.08258 | 30.55300 | 10541 ft | 272 kts | 96° |
| 2026-05-06 12:10 | 37.08036 | 30.57648 | 10260 ft | 270 kts | 95° |
| 2026-05-06 12:10 | 37.07859 | 30.59973 | 10006 ft | 267 kts | 86° |
| 2026-05-06 12:10 | 37.08312 | 30.62171 | 9715 ft | 259 kts | 56° |
| 2026-05-06 12:11 | 37.09506 | 30.63790 | 9450 ft | 251 kts | 31° |
| 2026-05-06 12:11 | 37.11073 | 30.64662 | 9181 ft | 245 kts | 10° |
| 2026-05-06 12:11 | 37.12742 | 30.64971 | 8942 ft | 241 kts | 4° |
| 2026-05-06 12:11 | 37.14411 | 30.65164 | 8672 ft | 240 kts | 4° |
| 2026-05-06 12:12 | 37.16070 | 30.65361 | 8420 ft | 239 kts | 5° |
| 2026-05-06 12:12 | 37.17699 | 30.65569 | 8178 ft | 238 kts | 5° |
| 2026-05-06 12:12 | 37.19361 | 30.65795 | 7929 ft | 237 kts | 7° |
| 2026-05-06 12:12 | 37.20868 | 30.66594 | 7680 ft | 238 kts | 35° |
| 2026-05-06 12:13 | 37.22195 | 30.67836 | 7433 ft | 239 kts | 34° |
| 2026-05-06 12:13 | 37.23523 | 30.69044 | 7192 ft | 238 kts | 34° |
| 2026-05-06 12:13 | 37.24788 | 30.70370 | 6922 ft | 239 kts | 52° |
| 2026-05-06 12:13 | 37.25543 | 30.72239 | 6703 ft | 241 kts | 65° |
| 2026-05-06 12:14 | 37.26223 | 30.74181 | 6437 ft | 245 kts | 65° |
| 2026-05-06 12:14 | 37.26922 | 30.76144 | 6155 ft | 246 kts | 64° |
| 2026-05-06 12:14 | 37.27619 | 30.78101 | 5863 ft | 246 kts | 65° |
| 2026-05-06 12:14 | 37.27929 | 30.80176 | 5698 ft | 240 kts | 96° |
| 2026-05-06 12:15 | 37.27306 | 30.82025 | 5663 ft | 230 kts | 137° |
| 2026-05-06 12:15 | 37.25901 | 30.82876 | 5641 ft | 225 kts | 175° |
| 2026-05-06 12:15 | 37.24365 | 30.82981 | 5548 ft | 218 kts | 180° |
| 2026-05-06 12:15 | 37.22873 | 30.82968 | 5370 ft | 212 kts | 181° |
| 2026-05-06 12:16 | 37.21408 | 30.82941 | 5168 ft | 209 kts | 181° |
| 2026-05-06 12:16 | 37.19971 | 30.82926 | 4976 ft | 204 kts | 181° |
| 2026-05-06 12:16 | 37.18562 | 30.82923 | 4763 ft | 201 kts | 180° |
| 2026-05-06 12:16 | 37.17171 | 30.82894 | 4540 ft | 198 kts | 183° |
| 2026-05-06 12:17 | 37.15810 | 30.82779 | 4355 ft | 194 kts | 185° |
| 2026-05-06 12:17 | 37.14494 | 30.82622 | 4183 ft | 186 kts | 186° |
| 2026-05-06 12:17 | 37.13227 | 30.82456 | 4000 ft | 181 kts | 186° |
| 2026-05-06 12:17 | 37.11982 | 30.82287 | 3868 ft | 181 kts | 186° |
| 2026-05-06 12:18 | 37.10722 | 30.82114 | 3706 ft | 183 kts | 186° |
| 2026-05-06 12:18 | 37.09477 | 30.81942 | 3655 ft | 179 kts | 186° |
| 2026-05-06 12:18 | 37.08220 | 30.81769 | 3449 ft | 183 kts | 186° |
| 2026-05-06 12:18 | 37.06948 | 30.81594 | 3193 ft | 183 kts | 185° |
| 2026-05-06 12:19 | 37.05706 | 30.81423 | 2951 ft | 176 kts | 185° |
| 2026-05-06 12:19 | 37.04493 | 30.81256 | 2731 ft | 175 kts | 184° |
| 2026-05-06 12:19 | 37.03285 | 30.81090 | 2503 ft | 174 kts | 184° |
| 2026-05-06 12:19 | 37.02092 | 30.80926 | 2259 ft | 170 kts | 184° |
| 2026-05-06 12:20 | 37.00917 | 30.80765 | 2034 ft | 170 kts | 184° |
| 2026-05-06 12:20 | 36.99799 | 30.80610 | 1818 ft | 157 kts | 185° |
| 2026-05-06 12:20 | 36.98738 | 30.80464 | 1601 ft | 153 kts | 184° |
| 2026-05-06 12:20 | 36.97702 | 30.80322 | 1419 ft | 146 kts | 184° |
| 2026-05-06 12:21 | 36.96700 | 30.80185 | 1219 ft | 143 kts | 185° |
| 2026-05-06 12:21 | 36.95718 | 30.80049 | 1024 ft | 143 kts | 187° |
| 2026-05-06 12:21 | 36.94712 | 30.79910 | 831 ft | 147 kts | 187° |
| 2026-05-06 12:21 | 36.93697 | 30.79768 | 635 ft | 146 kts | 187° |
| 2026-05-06 12:22 | 36.92686 | 30.79626 | 425 ft | 144 kts | 185° |
| 2026-05-06 12:22 | 36.91735 | 30.79493 | 263 ft | 132 kts | 185° |
| 2026-05-06 12:22 | 36.90856 | 30.79382 | 199 ft | 119 kts | 185° |
| 2026-05-06 12:22 | 36.90179 | 30.79288 | 182 ft | 76 kts | 186° |
| 2026-05-06 12:23 | 36.89753 | 30.79230 | 180 ft | 42 kts | 186° |
| 2026-05-06 12:23 | 36.89568 | 30.79240 | 178 ft | 23 kts | 158° |
| 2026-05-06 12:23 | 36.89438 | 30.79311 | 179 ft | 10 kts | 155° |
| 2026-05-06 12:23 | 36.89401 | 30.79335 | 179 ft | 5 kts | 143° |
| 2026-05-06 12:24 | 36.89385 | 30.79374 | 179 ft | 5 kts | 88° |
| 2026-05-06 12:24 | 36.89410 | 30.79401 | 179 ft | 5 kts | 8° |
| 2026-05-06 12:24 | 36.89447 | 30.79405 | 179 ft | 6 kts | 6° |
| 2026-05-06 12:24 | 36.89491 | 30.79411 | 180 ft | 7 kts | 6° |
| 2026-05-06 12:25 | 36.89542 | 30.79418 | 180 ft | 8 kts | 6° |
| 2026-05-06 12:25 | 36.89599 | 30.79426 | 180 ft | 9 kts | 6° |
| 2026-05-06 12:25 | 36.89655 | 30.79461 | 180 ft | 10 kts | 57° |
| 2026-05-06 12:25 | 36.89661 | 30.79542 | 180 ft | 9 kts | 94° |
| 2026-05-06 12:26 | 36.89648 | 30.79611 | 180 ft | 7 kts | 136° |
| 2026-05-06 12:26 | 36.89612 | 30.79615 | 180 ft | 2 kts | 184° |
| 2026-05-06 12:26 | 36.89596 | 30.79613 | 180 ft | 2 kts | 187° |
| 2026-05-06 12:26 | 36.89582 | 30.79610 | 180 ft | 0 kts | 187° |